Lubbock, TX (79401)

10:11 PM CDT on August 31, 2015 (GMT -0500)
Carlisle Park | | Change Station
CLOSE
Current Station
Personal Weather Station
Location: Lubbock, TX
Elevation: 3215 ft
Nearby Weather Stations

Elev 3215 ft 33.57 °N, 101.87 °W | Updated 1 second ago

Clear
Clear
78.8 °F
Feels Like 79 °F
N
1.6
Wind Variable Wind from SE
Gusts 3.1 mph

Today
High -- | Low -- °F
--% Chance of Precip.
Yesterday
High -- | Low -- °F
Precip. -- in
7:20 AM 8:14 PM
Waning Gibbous, 92% visible
Pressure 29.87 in
Visibility 10.0 miles
Clouds Clear
Heat Index 79 °F
Dew Point 54 °F
Humidity 42%
Rainfall 0.00 in
Snow Depth Not available.
UV 0 out of 12
Pollen 8.80 out of 12
Air Quality Not available.
Flu Activity Not available.
METAR KLBB 010253Z 16007KT 10SM CLR 26/12 A3002 RMK AO2 SLP113 T02560122 53010
Pressure 29.87 in
Visibility 10.0 miles
Clouds Clear
Heat Index 79 °F
Dew Point 54 °F
Humidity 42%
Rainfall 0.00 in
Snow Depth Not available.
UV 0 out of 12
Pollen 8.80 out of 12
Air Quality Not available.
Flu Activity Not available.
METAR KLBB 010253Z 16007KT 10SM CLR 26/12 A3002 RMK AO2 SLP113 T02560122 53010

10-Day Weather Forecast

×

Almanac

Astronomy

Aug. 31, 2015 Rise Set
Actual Time
Civil Twilight
Nautical Twilight
Astronomical Twilight
Moon
Length of Visible Light
Length of Day
Tomorrow will be .
, % of the Moon is Illuminated

Today's Extremes

State Highs State Lows

Community

WunderPhotos

Upload Photos

1,851,471 photos uploaded!

WunderBlogs® & News

Nearby

Air Quality

  Air Quality AQ Index Pollutant
Not available.

Snow Depth

Station Depth Elevation

Earthquake Activity

City Distance Mag. Time & Date
Minimum magnitude displayed is 2.5.

Coastal Water Temperatures

Place Temperature

Stations

Nearby Weather Stations

Station Location Temp. Windchill Dew Point Humidity Wind Precip. Elev Updated Type